sensor_id;sensor_type;location;lat;lon;timestamp;pressure;altitude;pressure_sealevel;temperature
56286;BMP180;42191;47.562;9.686;2023-04-07T00:02:06;96954.00;;;12.90
56286;BMP180;42191;47.562;9.686;2023-04-07T00:04:32;96953.00;;;12.90
56286;BMP180;42191;47.562;9.686;2023-04-07T00:06:58;96943.00;;;12.90
56286;BMP180;42191;47.562;9.686;2023-04-07T00:09:24;96946.00;;;12.90
56286;BMP180;42191;47.562;9.686;2023-04-07T00:11:50;96937.00;;;12.90
56286;BMP180;42191;47.562;9.686;2023-04-07T00:14:17;96926.00;;;12.90
56286;BMP180;42191;47.562;9.686;2023-04-07T00:16:43;96928.00;;;12.90
56286;BMP180;42191;47.562;9.686;2023-04-07T00:19:09;96925.00;;;12.90
56286;BMP180;42191;47.562;9.686;2023-04-07T00:21:35;96927.00;;;12.90
56286;BMP180;42191;47.562;9.686;2023-04-07T00:24:01;96925.00;;;12.90
56286;BMP180;42191;47.562;9.686;2023-04-07T00:26:28;96921.00;;;12.90
56286;BMP180;42191;47.562;9.686;2023-04-07T00:28:57;96914.00;;;12.90
56286;BMP180;42191;47.562;9.686;2023-04-07T00:31:23;96915.00;;;12.90
56286;BMP180;42191;47.562;9.686;2023-04-07T00:33:49;96906.00;;;12.80
56286;BMP180;42191;47.562;9.686;2023-04-07T00:36:16;96906.00;;;12.80
56286;BMP180;42191;47.562;9.686;2023-04-07T00:38:42;96905.00;;;12.80
56286;BMP180;42191;47.562;9.686;2023-04-07T00:41:08;96898.00;;;12.80
56286;BMP180;42191;47.562;9.686;2023-04-07T00:43:34;96890.00;;;12.70
56286;BMP180;42191;47.562;9.686;2023-04-07T00:46:00;96893.00;;;12.70
56286;BMP180;42191;47.562;9.686;2023-04-07T00:48:27;96885.00;;;12.70
56286;BMP180;42191;47.562;9.686;2023-04-07T00:50:53;96893.00;;;12.70
56286;BMP180;42191;47.562;9.686;2023-04-07T00:53:19;96889.00;;;12.70
56286;BMP180;42191;47.562;9.686;2023-04-07T00:55:46;96879.00;;;12.70
56286;BMP180;42191;47.562;9.686;2023-04-07T00:58:12;96874.00;;;12.70
56286;BMP180;42191;47.562;9.686;2023-04-07T01:00:44;96881.00;;;12.70
56286;BMP180;42191;47.562;9.686;2023-04-07T01:03:19;96865.00;;;12.70
56286;BMP180;42191;47.562;9.686;2023-04-07T01:06:02;96860.00;;;12.70
56286;BMP180;42191;47.562;9.686;2023-04-07T01:08:37;96856.00;;;12.70
56286;BMP180;42191;47.562;9.686;2023-04-07T01:11:07;96857.00;;;12.70
56286;BMP180;42191;47.562;9.686;2023-04-07T01:16:15;96850.00;;;12.60
56286;BMP180;42191;47.562;9.686;2023-04-07T01:18:43;96850.00;;;12.60
56286;BMP180;42191;47.562;9.686;2023-04-07T01:21:17;96842.00;;;12.60
56286;BMP180;42191;47.562;9.686;2023-04-07T01:27:20;96837.00;;;12.60
56286;BMP180;42191;47.562;9.686;2023-04-07T01:29:47;96835.00;;;12.60
56286;BMP180;42191;47.562;9.686;2023-04-07T01:32:17;96839.00;;;12.60
56286;BMP180;42191;47.562;9.686;2023-04-07T01:34:50;96842.00;;;12.60
56286;BMP180;42191;47.562;9.686;2023-04-07T01:37:17;96826.00;;;12.60
56286;BMP180;42191;47.562;9.686;2023-04-07T01:39:44;96831.00;;;12.60
56286;BMP180;42191;47.562;9.686;2023-04-07T01:42:10;96825.00;;;12.60
56286;BMP180;42191;47.562;9.686;2023-04-07T01:44:38;96827.00;;;12.60
56286;BMP180;42191;47.562;9.686;2023-04-07T01:47:05;96829.00;;;12.60
56286;BMP180;42191;47.562;9.686;2023-04-07T01:49:32;96821.00;;;12.60
56286;BMP180;42191;47.562;9.686;2023-04-07T01:52:01;96820.00;;;12.60
56286;BMP180;42191;47.562;9.686;2023-04-07T01:54:28;96809.00;;;12.60
56286;BMP180;42191;47.562;9.686;2023-04-07T01:56:54;96809.00;;;12.60
56286;BMP180;42191;47.562;9.686;2023-04-07T01:59:21;96798.00;;;12.60
56286;BMP180;42191;47.562;9.686;2023-04-07T02:01:47;96804.00;;;12.60
56286;BMP180;42191;47.562;9.686;2023-04-07T02:04:47;96806.00;;;12.60
56286;BMP180;42191;47.562;9.686;2023-04-07T02:07:20;96807.00;;;12.60
56286;BMP180;42191;47.562;9.686;2023-04-07T02:09:47;96801.00;;;12.60
56286;BMP180;42191;47.562;9.686;2023-04-07T02:12:15;96792.00;;;12.60
56286;BMP180;42191;47.562;9.686;2023-04-07T02:14:42;96790.00;;;12.70
56286;BMP180;42191;47.562;9.686;2023-04-07T02:17:09;96795.00;;;12.70
56286;BMP180;42191;47.562;9.686;2023-04-07T02:19:36;96792.00;;;12.70
56286;BMP180;42191;47.562;9.686;2023-04-07T02:22:04;96787.00;;;12.70
56286;BMP180;42191;47.562;9.686;2023-04-07T02:24:30;96778.00;;;12.60
56286;BMP180;42191;47.562;9.686;2023-04-07T02:26:56;96786.00;;;12.70
56286;BMP180;42191;47.562;9.686;2023-04-07T02:29:22;96769.00;;;12.70
56286;BMP180;42191;47.562;9.686;2023-04-07T02:31:48;96769.00;;;12.60
56286;BMP180;42191;47.562;9.686;2023-04-07T02:34:15;96779.00;;;12.70
56286;BMP180;42191;47.562;9.686;2023-04-07T02:36:41;96761.00;;;12.60
56286;BMP180;42191;47.562;9.686;2023-04-07T02:39:07;96761.00;;;12.60
56286;BMP180;42191;47.562;9.686;2023-04-07T02:41:34;96761.00;;;12.60
56286;BMP180;42191;47.562;9.686;2023-04-07T02:44:00;96759.00;;;12.60
56286;BMP180;42191;47.562;9.686;2023-04-07T02:46:26;96756.00;;;12.70
56286;BMP180;42191;47.562;9.686;2023-04-07T02:48:52;96755.00;;;12.70
56286;BMP180;42191;47.562;9.686;2023-04-07T02:51:18;96735.00;;;12.70
56286;BMP180;42191;47.562;9.686;2023-04-07T02:53:44;96741.00;;;12.60
56286;BMP180;42191;47.562;9.686;2023-04-07T02:56:11;96741.00;;;12.60
56286;BMP180;42191;47.562;9.686;2023-04-07T02:58:37;96740.00;;;12.60
56286;BMP180;42191;47.562;9.686;2023-04-07T03:01:03;96728.00;;;12.60
56286;BMP180;42191;47.562;9.686;2023-04-07T03:03:30;96726.00;;;12.60
56286;BMP180;42191;47.562;9.686;2023-04-07T03:05:56;96720.00;;;12.60
56286;BMP180;42191;47.562;9.686;2023-04-07T03:08:22;96728.00;;;12.60
56286;BMP180;42191;47.562;9.686;2023-04-07T03:10:48;96725.00;;;12.60
56286;BMP180;42191;47.562;9.686;2023-04-07T03:13:14;96715.00;;;12.60
56286;BMP180;42191;47.562;9.686;2023-04-07T03:15:44;96716.00;;;12.50
56286;BMP180;42191;47.562;9.686;2023-04-07T03:18:10;96716.00;;;12.50
56286;BMP180;42191;47.562;9.686;2023-04-07T03:20:37;96709.00;;;12.50
56286;BMP180;42191;47.562;9.686;2023-04-07T03:23:03;96704.00;;;12.50
56286;BMP180;42191;47.562;9.686;2023-04-07T03:25:29;96704.00;;;12.40
56286;BMP180;42191;47.562;9.686;2023-04-07T03:27:56;96705.00;;;12.40
56286;BMP180;42191;47.562;9.686;2023-04-07T03:30:22;96705.00;;;12.40
56286;BMP180;42191;47.562;9.686;2023-04-07T03:32:48;96710.00;;;12.30
56286;BMP180;42191;47.562;9.686;2023-04-07T03:35:14;96711.00;;;12.30
56286;BMP180;42191;47.562;9.686;2023-04-07T03:37:41;96709.00;;;12.30
56286;BMP180;42191;47.562;9.686;2023-04-07T03:40:07;96701.00;;;12.20
56286;BMP180;42191;47.562;9.686;2023-04-07T03:42:33;96700.00;;;12.20
56286;BMP180;42191;47.562;9.686;2023-04-07T03:45:00;96703.00;;;12.20
56286;BMP180;42191;47.562;9.686;2023-04-07T03:47:26;96703.00;;;12.20
56286;BMP180;42191;47.562;9.686;2023-04-07T03:49:52;96701.00;;;12.20
56286;BMP180;42191;47.562;9.686;2023-04-07T03:52:18;96698.00;;;12.20
56286;BMP180;42191;47.562;9.686;2023-04-07T03:54:44;96698.00;;;12.20
56286;BMP180;42191;47.562;9.686;2023-04-07T03:57:10;96697.00;;;12.20
56286;BMP180;42191;47.562;9.686;2023-04-07T03:59:36;96696.00;;;12.20
56286;BMP180;42191;47.562;9.686;2023-04-07T04:02:03;96684.00;;;12.10
56286;BMP180;42191;47.562;9.686;2023-04-07T04:04:29;96689.00;;;12.20
56286;BMP180;42191;47.562;9.686;2023-04-07T04:06:55;96688.00;;;12.20
56286;BMP180;42191;47.562;9.686;2023-04-07T04:09:21;96685.00;;;12.10
56286;BMP180;42191;47.562;9.686;2023-04-07T04:11:47;96681.00;;;12.10
56286;BMP180;42191;47.562;9.686;2023-04-07T04:14:13;96681.00;;;12.10
56286;BMP180;42191;47.562;9.686;2023-04-07T04:16:39;96677.00;;;12.10
56286;BMP180;42191;47.562;9.686;2023-04-07T04:19:05;96674.00;;;12.10
56286;BMP180;42191;47.562;9.686;2023-04-07T04:21:31;96667.00;;;12.00
56286;BMP180;42191;47.562;9.686;2023-04-07T04:23:57;96668.00;;;12.00
56286;BMP180;42191;47.562;9.686;2023-04-07T04:26:24;96659.00;;;11.90
56286;BMP180;42191;47.562;9.686;2023-04-07T04:28:51;96660.00;;;11.80
56286;BMP180;42191;47.562;9.686;2023-04-07T04:31:17;96650.00;;;11.80
56286;BMP180;42191;47.562;9.686;2023-04-07T04:33:43;96649.00;;;11.70
56286;BMP180;42191;47.562;9.686;2023-04-07T04:36:10;96641.00;;;11.60
56286;BMP180;42191;47.562;9.686;2023-04-07T04:38:36;96650.00;;;11.60
56286;BMP180;42191;47.562;9.686;2023-04-07T04:41:02;96656.00;;;11.50
56286;BMP180;42191;47.562;9.686;2023-04-07T04:43:28;96659.00;;;11.50
56286;BMP180;42191;47.562;9.686;2023-04-07T04:45:55;96656.00;;;11.40
56286;BMP180;42191;47.562;9.686;2023-04-07T04:48:21;96667.00;;;11.40
56286;BMP180;42191;47.562;9.686;2023-04-07T04:50:47;96667.00;;;11.40
56286;BMP180;42191;47.562;9.686;2023-04-07T04:53:13;96668.00;;;11.40
56286;BMP180;42191;47.562;9.686;2023-04-07T04:55:40;96672.00;;;11.30
56286;BMP180;42191;47.562;9.686;2023-04-07T04:58:07;96675.00;;;11.40
56286;BMP180;42191;47.562;9.686;2023-04-07T05:00:33;96669.00;;;11.40
56286;BMP180;42191;47.562;9.686;2023-04-07T05:02:59;96667.00;;;11.40
56286;BMP180;42191;47.562;9.686;2023-04-07T05:05:26;96662.00;;;11.40
56286;BMP180;42191;47.562;9.686;2023-04-07T05:07:52;96664.00;;;11.50
56286;BMP180;42191;47.562;9.686;2023-04-07T05:10:18;96652.00;;;11.60
56286;BMP180;42191;47.562;9.686;2023-04-07T05:12:44;96668.00;;;11.60
56286;BMP180;42191;47.562;9.686;2023-04-07T05:15:10;96667.00;;;11.70
56286;BMP180;42191;47.562;9.686;2023-04-07T05:17:36;96661.00;;;11.70
56286;BMP180;42191;47.562;9.686;2023-04-07T05:20:04;96656.00;;;11.80
56286;BMP180;42191;47.562;9.686;2023-04-07T05:22:30;96655.00;;;11.80
56286;BMP180;42191;47.562;9.686;2023-04-07T05:24:56;96647.00;;;11.90
56286;BMP180;42191;47.562;9.686;2023-04-07T05:27:22;96655.00;;;11.90
56286;BMP180;42191;47.562;9.686;2023-04-07T05:29:48;96653.00;;;12.00
56286;BMP180;42191;47.562;9.686;2023-04-07T05:32:14;96649.00;;;12.00
56286;BMP180;42191;47.562;9.686;2023-04-07T05:34:40;96651.00;;;12.00
56286;BMP180;42191;47.562;9.686;2023-04-07T05:37:06;96654.00;;;12.10
56286;BMP180;42191;47.562;9.686;2023-04-07T05:39:32;96656.00;;;12.10
56286;BMP180;42191;47.562;9.686;2023-04-07T05:41:58;96653.00;;;12.10
56286;BMP180;42191;47.562;9.686;2023-04-07T05:44:26;96660.00;;;12.20
56286;BMP180;42191;47.562;9.686;2023-04-07T05:46:52;96652.00;;;12.30
56286;BMP180;42191;47.562;9.686;2023-04-07T05:49:18;96650.00;;;12.30
56286;BMP180;42191;47.562;9.686;2023-04-07T05:51:44;96658.00;;;12.40
56286;BMP180;42191;47.562;9.686;2023-04-07T05:54:10;96654.00;;;12.40
56286;BMP180;42191;47.562;9.686;2023-04-07T05:56:36;96648.00;;;12.50
56286;BMP180;42191;47.562;9.686;2023-04-07T05:59:03;96649.00;;;12.50
56286;BMP180;42191;47.562;9.686;2023-04-07T06:01:29;96650.00;;;12.60
56286;BMP180;42191;47.562;9.686;2023-04-07T06:03:55;96649.00;;;12.60
56286;BMP180;42191;47.562;9.686;2023-04-07T06:06:23;96650.00;;;12.60
56286;BMP180;42191;47.562;9.686;2023-04-07T06:08:49;96642.00;;;12.70
56286;BMP180;42191;47.562;9.686;2023-04-07T06:11:15;96650.00;;;12.70
56286;BMP180;42191;47.562;9.686;2023-04-07T06:13:41;96646.00;;;12.80
56286;BMP180;42191;47.562;9.686;2023-04-07T06:16:07;96637.00;;;12.80
56286;BMP180;42191;47.562;9.686;2023-04-07T06:18:33;96640.00;;;12.90
56286;BMP180;42191;47.562;9.686;2023-04-07T06:21:00;96635.00;;;12.90
56286;BMP180;42191;47.562;9.686;2023-04-07T06:23:26;96632.00;;;13.00
56286;BMP180;42191;47.562;9.686;2023-04-07T06:25:52;96641.00;;;13.00
56286;BMP180;42191;47.562;9.686;2023-04-07T06:28:19;96634.00;;;13.10
56286;BMP180;42191;47.562;9.686;2023-04-07T06:30:46;96643.00;;;13.20
56286;BMP180;42191;47.562;9.686;2023-04-07T06:33:13;96638.00;;;13.30
56286;BMP180;42191;47.562;9.686;2023-04-07T06:35:39;96623.00;;;13.30
56286;BMP180;42191;47.562;9.686;2023-04-07T06:38:06;96624.00;;;13.40
56286;BMP180;42191;47.562;9.686;2023-04-07T06:40:32;96633.00;;;13.50
56286;BMP180;42191;47.562;9.686;2023-04-07T06:42:58;96624.00;;;13.60
56286;BMP180;42191;47.562;9.686;2023-04-07T06:45:24;96636.00;;;13.70
56286;BMP180;42191;47.562;9.686;2023-04-07T06:47:50;96634.00;;;13.80
56286;BMP180;42191;47.562;9.686;2023-04-07T06:50:16;96639.00;;;13.80
56286;BMP180;42191;47.562;9.686;2023-04-07T06:52:45;96630.00;;;13.90
56286;BMP180;42191;47.562;9.686;2023-04-07T06:55:11;96633.00;;;14.00
56286;BMP180;42191;47.562;9.686;2023-04-07T06:57:37;96628.00;;;14.10
56286;BMP180;42191;47.562;9.686;2023-04-07T07:00:04;96633.00;;;14.20
56286;BMP180;42191;47.562;9.686;2023-04-07T07:02:32;96625.00;;;14.30
56286;BMP180;42191;47.562;9.686;2023-04-07T07:04:59;96632.00;;;14.40
56286;BMP180;42191;47.562;9.686;2023-04-07T07:07:25;96631.00;;;14.40
56286;BMP180;42191;47.562;9.686;2023-04-07T07:09:52;96631.00;;;14.50
56286;BMP180;42191;47.562;9.686;2023-04-07T07:12:18;96628.00;;;14.60
56286;BMP180;42191;47.562;9.686;2023-04-07T07:14:44;96624.00;;;14.70
56286;BMP180;42191;47.562;9.686;2023-04-07T07:17:10;96638.00;;;14.80
56286;BMP180;42191;47.562;9.686;2023-04-07T07:19:37;96639.00;;;14.80
56286;BMP180;42191;47.562;9.686;2023-04-07T07:22:03;96629.00;;;14.90
56286;BMP180;42191;47.562;9.686;2023-04-07T07:24:30;96634.00;;;15.00
56286;BMP180;42191;47.562;9.686;2023-04-07T07:26:59;96629.00;;;15.10
56286;BMP180;42191;47.562;9.686;2023-04-07T07:29:25;96624.00;;;15.20
56286;BMP180;42191;47.562;9.686;2023-04-07T07:31:51;96624.00;;;15.30
56286;BMP180;42191;47.562;9.686;2023-04-07T07:34:18;96624.00;;;15.40
56286;BMP180;42191;47.562;9.686;2023-04-07T07:36:44;96630.00;;;15.40
56286;BMP180;42191;47.562;9.686;2023-04-07T07:39:10;96634.00;;;15.50
56286;BMP180;42191;47.562;9.686;2023-04-07T07:41:36;96630.00;;;15.50
56286;BMP180;42191;47.562;9.686;2023-04-07T07:44:02;96633.00;;;15.60
56286;BMP180;42191;47.562;9.686;2023-04-07T07:46:28;96621.00;;;15.60
56286;BMP180;42191;47.562;9.686;2023-04-07T07:48:54;96627.00;;;15.70
56286;BMP180;42191;47.562;9.686;2023-04-07T07:51:20;96621.00;;;15.80
56286;BMP180;42191;47.562;9.686;2023-04-07T07:53:46;96615.00;;;15.80
56286;BMP180;42191;47.562;9.686;2023-04-07T07:56:12;96621.00;;;15.90
56286;BMP180;42191;47.562;9.686;2023-04-07T07:58:39;96616.00;;;16.00
56286;BMP180;42191;47.562;9.686;2023-04-07T08:01:05;96619.00;;;16.10
56286;BMP180;42191;47.562;9.686;2023-04-07T08:03:31;96618.00;;;16.20
56286;BMP180;42191;47.562;9.686;2023-04-07T08:05:57;96625.00;;;16.30
56286;BMP180;42191;47.562;9.686;2023-04-07T08:08:23;96614.00;;;16.40
56286;BMP180;42191;47.562;9.686;2023-04-07T08:10:49;96617.00;;;16.50
56286;BMP180;42191;47.562;9.686;2023-04-07T08:13:15;96627.00;;;16.50
56286;BMP180;42191;47.562;9.686;2023-04-07T08:15:41;96630.00;;;16.50
56286;BMP180;42191;47.562;9.686;2023-04-07T08:18:08;96632.00;;;16.50
56286;BMP180;42191;47.562;9.686;2023-04-07T08:20:34;96630.00;;;16.50
56286;BMP180;42191;47.562;9.686;2023-04-07T08:23:01;96629.00;;;16.60
56286;BMP180;42191;47.562;9.686;2023-04-07T08:25:28;96637.00;;;16.60
56286;BMP180;42191;47.562;9.686;2023-04-07T08:27:54;96638.00;;;16.50
56286;BMP180;42191;47.562;9.686;2023-04-07T08:30:20;96637.00;;;16.50
56286;BMP180;42191;47.562;9.686;2023-04-07T08:32:47;96638.00;;;16.50
56286;BMP180;42191;47.562;9.686;2023-04-07T08:35:13;96642.00;;;16.50
56286;BMP180;42191;47.562;9.686;2023-04-07T08:37:40;96639.00;;;16.50
56286;BMP180;42191;47.562;9.686;2023-04-07T08:40:09;96648.00;;;16.50
56286;BMP180;42191;47.562;9.686;2023-04-07T08:42:40;96637.00;;;16.60
56286;BMP180;42191;47.562;9.686;2023-04-07T08:45:07;96625.00;;;16.60
56286;BMP180;42191;47.562;9.686;2023-04-07T08:47:36;96636.00;;;16.70
56286;BMP180;42191;47.562;9.686;2023-04-07T08:50:09;96639.00;;;16.70
56286;BMP180;42191;47.562;9.686;2023-04-07T08:52:54;96632.00;;;16.80
56286;BMP180;42191;47.562;9.686;2023-04-07T08:55:21;96643.00;;;16.90
56286;BMP180;42191;47.562;9.686;2023-04-07T08:57:48;96637.00;;;17.00
56286;BMP180;42191;47.562;9.686;2023-04-07T09:00:14;96630.00;;;17.00
56286;BMP180;42191;47.562;9.686;2023-04-07T09:02:42;96639.00;;;17.10
56286;BMP180;42191;47.562;9.686;2023-04-07T09:05:11;96639.00;;;17.20
56286;BMP180;42191;47.562;9.686;2023-04-07T09:07:39;96627.00;;;17.30
56286;BMP180;42191;47.562;9.686;2023-04-07T09:10:06;96629.00;;;17.40
56286;BMP180;42191;47.562;9.686;2023-04-07T09:12:33;96634.00;;;17.50
56286;BMP180;42191;47.562;9.686;2023-04-07T09:14:59;96633.00;;;17.60
56286;BMP180;42191;47.562;9.686;2023-04-07T09:17:26;96627.00;;;17.70
56286;BMP180;42191;47.562;9.686;2023-04-07T09:19:56;96630.00;;;17.80
56286;BMP180;42191;47.562;9.686;2023-04-07T09:22:38;96630.00;;;18.00
56286;BMP180;42191;47.562;9.686;2023-04-07T09:27:59;96628.00;;;18.30
56286;BMP180;42191;47.562;9.686;2023-04-07T09:30:26;96629.00;;;18.50
56286;BMP180;42191;47.562;9.686;2023-04-07T09:32:53;96637.00;;;18.70
56286;BMP180;42191;47.562;9.686;2023-04-07T09:35:19;96627.00;;;18.90
56286;BMP180;42191;47.562;9.686;2023-04-07T09:38:06;96625.00;;;19.00
56286;BMP180;42191;47.562;9.686;2023-04-07T09:40:34;96618.00;;;19.10
56286;BMP180;42191;47.562;9.686;2023-04-07T09:43:02;96628.00;;;19.20
56286;BMP180;42191;47.562;9.686;2023-04-07T09:45:29;96627.00;;;19.30
56286;BMP180;42191;47.562;9.686;2023-04-07T09:47:57;96628.00;;;19.30
56286;BMP180;42191;47.562;9.686;2023-04-07T09:50:34;96621.00;;;19.30
56286;BMP180;42191;47.562;9.686;2023-04-07T09:53:00;96618.00;;;19.30
56286;BMP180;42191;47.562;9.686;2023-04-07T09:55:28;96617.00;;;19.30
56286;BMP180;42191;47.562;9.686;2023-04-07T09:57:55;96617.00;;;19.30
56286;BMP180;42191;47.562;9.686;2023-04-07T10:00:21;96606.00;;;19.40
56286;BMP180;42191;47.562;9.686;2023-04-07T10:02:48;96607.00;;;19.50
56286;BMP180;42191;47.562;9.686;2023-04-07T10:05:16;96606.00;;;19.70
56286;BMP180;42191;47.562;9.686;2023-04-07T10:07:42;96611.00;;;19.70
56286;BMP180;42191;47.562;9.686;2023-04-07T10:10:09;96623.00;;;19.80
56286;BMP180;42191;47.562;9.686;2023-04-07T10:12:37;96617.00;;;19.90
56286;BMP180;42191;47.562;9.686;2023-04-07T10:15:04;96608.00;;;19.90
56286;BMP180;42191;47.562;9.686;2023-04-07T10:17:36;96615.00;;;19.90
56286;BMP180;42191;47.562;9.686;2023-04-07T10:20:05;96616.00;;;19.80
56286;BMP180;42191;47.562;9.686;2023-04-07T10:22:32;96613.00;;;19.80
56286;BMP180;42191;47.562;9.686;2023-04-07T10:25:07;96606.00;;;19.70
56286;BMP180;42191;47.562;9.686;2023-04-07T10:27:42;96623.00;;;19.70
56286;BMP180;42191;47.562;9.686;2023-04-07T10:30:19;96617.00;;;19.80
56286;BMP180;42191;47.562;9.686;2023-04-07T10:32:51;96614.00;;;19.80
56286;BMP180;42191;47.562;9.686;2023-04-07T10:35:19;96620.00;;;19.90
56286;BMP180;42191;47.562;9.686;2023-04-07T10:40:31;96611.00;;;19.80
56286;BMP180;42191;47.562;9.686;2023-04-07T10:42:58;96627.00;;;19.80
56286;BMP180;42191;47.562;9.686;2023-04-07T10:48:15;96625.00;;;19.60
56286;BMP180;42191;47.562;9.686;2023-04-07T10:50:43;96631.00;;;19.60
56286;BMP180;42191;47.562;9.686;2023-04-07T10:53:10;96621.00;;;19.40
56286;BMP180;42191;47.562;9.686;2023-04-07T11:03:35;96631.00;;;18.90
56286;BMP180;42191;47.562;9.686;2023-04-07T11:06:12;96638.00;;;18.80
56286;BMP180;42191;47.562;9.686;2023-04-07T11:11:07;96631.00;;;18.70
56286;BMP180;42191;47.562;9.686;2023-04-07T11:13:47;96633.00;;;18.60
56286;BMP180;42191;47.562;9.686;2023-04-07T11:16:16;96633.00;;;18.50
56286;BMP180;42191;47.562;9.686;2023-04-07T11:18:43;96631.00;;;18.50
56286;BMP180;42191;47.562;9.686;2023-04-07T11:21:10;96631.00;;;18.50
56286;BMP180;42191;47.562;9.686;2023-04-07T11:23:40;96644.00;;;18.50
56286;BMP180;42191;47.562;9.686;2023-04-07T11:26:08;96634.00;;;18.60
56286;BMP180;42191;47.562;9.686;2023-04-07T11:28:49;96634.00;;;18.60
56286;BMP180;42191;47.562;9.686;2023-04-07T11:31:29;96628.00;;;18.50
56286;BMP180;42191;47.562;9.686;2023-04-07T11:33:58;96627.00;;;18.50
56286;BMP180;42191;47.562;9.686;2023-04-07T11:38:57;96646.00;;;18.40
56286;BMP180;42191;47.562;9.686;2023-04-07T11:41:24;96639.00;;;18.40
56286;BMP180;42191;47.562;9.686;2023-04-07T11:44:04;96645.00;;;18.40
56286;BMP180;42191;47.562;9.686;2023-04-07T11:46:30;96638.00;;;18.40
56286;BMP180;42191;47.562;9.686;2023-04-07T11:49:08;96646.00;;;18.40
56286;BMP180;42191;47.562;9.686;2023-04-07T11:51:35;96649.00;;;18.40
56286;BMP180;42191;47.562;9.686;2023-04-07T11:54:01;96657.00;;;18.50
56286;BMP180;42191;47.562;9.686;2023-04-07T11:56:27;96653.00;;;18.50
56286;BMP180;42191;47.562;9.686;2023-04-07T11:58:55;96643.00;;;18.50
56286;BMP180;42191;47.562;9.686;2023-04-07T12:01:22;96659.00;;;18.50
56286;BMP180;42191;47.562;9.686;2023-04-07T12:04:00;96647.00;;;18.50
56286;BMP180;42191;47.562;9.686;2023-04-07T12:06:31;96647.00;;;18.60
56286;BMP180;42191;47.562;9.686;2023-04-07T12:09:04;96644.00;;;18.60
56286;BMP180;42191;47.562;9.686;2023-04-07T12:11:31;96647.00;;;18.70
56286;BMP180;42191;47.562;9.686;2023-04-07T12:13:58;96659.00;;;18.80
56286;BMP180;42191;47.562;9.686;2023-04-07T12:16:24;96651.00;;;18.80
56286;BMP180;42191;47.562;9.686;2023-04-07T12:18:51;96655.00;;;18.80
56286;BMP180;42191;47.562;9.686;2023-04-07T12:21:18;96647.00;;;18.80
56286;BMP180;42191;47.562;9.686;2023-04-07T12:23:45;96650.00;;;18.90
56286;BMP180;42191;47.562;9.686;2023-04-07T12:26:12;96644.00;;;19.00
56286;BMP180;42191;47.562;9.686;2023-04-07T12:28:38;96651.00;;;19.00
56286;BMP180;42191;47.562;9.686;2023-04-07T12:31:04;96654.00;;;19.10
56286;BMP180;42191;47.562;9.686;2023-04-07T12:33:31;96649.00;;;19.30
56286;BMP180;42191;47.562;9.686;2023-04-07T12:35:57;96655.00;;;19.40
56286;BMP180;42191;47.562;9.686;2023-04-07T12:38:24;96646.00;;;19.40
56286;BMP180;42191;47.562;9.686;2023-04-07T12:40:50;96654.00;;;19.50
56286;BMP180;42191;47.562;9.686;2023-04-07T12:43:16;96647.00;;;19.50
56286;BMP180;42191;47.562;9.686;2023-04-07T12:45:43;96652.00;;;19.50
56286;BMP180;42191;47.562;9.686;2023-04-07T12:48:09;96644.00;;;19.60
56286;BMP180;42191;47.562;9.686;2023-04-07T12:50:35;96646.00;;;19.60
56286;BMP180;42191;47.562;9.686;2023-04-07T12:53:02;96641.00;;;19.80
56286;BMP180;42191;47.562;9.686;2023-04-07T12:55:30;96647.00;;;19.90
56286;BMP180;42191;47.562;9.686;2023-04-07T12:57:59;96637.00;;;20.00
56286;BMP180;42191;47.562;9.686;2023-04-07T13:00:25;96638.00;;;20.10
56286;BMP180;42191;47.562;9.686;2023-04-07T13:02:51;96636.00;;;20.10
56286;BMP180;42191;47.562;9.686;2023-04-07T13:05:17;96644.00;;;20.10
56286;BMP180;42191;47.562;9.686;2023-04-07T13:07:44;96636.00;;;20.10
56286;BMP180;42191;47.562;9.686;2023-04-07T13:10:10;96640.00;;;20.00
56286;BMP180;42191;47.562;9.686;2023-04-07T13:12:37;96639.00;;;20.00
56286;BMP180;42191;47.562;9.686;2023-04-07T13:15:05;96636.00;;;20.00
56286;BMP180;42191;47.562;9.686;2023-04-07T13:17:31;96651.00;;;20.00
56286;BMP180;42191;47.562;9.686;2023-04-07T13:19:58;96653.00;;;20.00
56286;BMP180;42191;47.562;9.686;2023-04-07T13:22:24;96640.00;;;20.00
56286;BMP180;42191;47.562;9.686;2023-04-07T13:24:50;96655.00;;;19.90
56286;BMP180;42191;47.562;9.686;2023-04-07T13:27:16;96674.00;;;20.00
56286;BMP180;42191;47.562;9.686;2023-04-07T13:29:42;96662.00;;;20.00
56286;BMP180;42191;47.562;9.686;2023-04-07T13:32:10;96642.00;;;20.10
56286;BMP180;42191;47.562;9.686;2023-04-07T13:34:40;96651.00;;;20.10
56286;BMP180;42191;47.562;9.686;2023-04-07T13:37:06;96654.00;;;20.10
56286;BMP180;42191;47.562;9.686;2023-04-07T13:39:33;96656.00;;;20.10
56286;BMP180;42191;47.562;9.686;2023-04-07T13:41:59;96654.00;;;20.20
56286;BMP180;42191;47.562;9.686;2023-04-07T13:44:26;96652.00;;;20.20
56286;BMP180;42191;47.562;9.686;2023-04-07T13:46:55;96649.00;;;20.20
56286;BMP180;42191;47.562;9.686;2023-04-07T13:49:22;96652.00;;;20.10
56286;BMP180;42191;47.562;9.686;2023-04-07T13:51:48;96643.00;;;20.20
56286;BMP180;42191;47.562;9.686;2023-04-07T13:54:16;96661.00;;;20.20
56286;BMP180;42191;47.562;9.686;2023-04-07T13:56:43;96654.00;;;20.30
56286;BMP180;42191;47.562;9.686;2023-04-07T13:59:09;96651.00;;;20.30
56286;BMP180;42191;47.562;9.686;2023-04-07T14:01:35;96655.00;;;20.50
56286;BMP180;42191;47.562;9.686;2023-04-07T14:04:04;96662.00;;;20.70
56286;BMP180;42191;47.562;9.686;2023-04-07T14:06:30;96655.00;;;21.00
56286;BMP180;42191;47.562;9.686;2023-04-07T14:08:57;96659.00;;;21.20
56286;BMP180;42191;47.562;9.686;2023-04-07T14:11:23;96642.00;;;21.40
56286;BMP180;42191;47.562;9.686;2023-04-07T14:13:51;96658.00;;;21.60
56286;BMP180;42191;47.562;9.686;2023-04-07T14:16:18;96644.00;;;21.70
56286;BMP180;42191;47.562;9.686;2023-04-07T14:18:44;96644.00;;;21.80
56286;BMP180;42191;47.562;9.686;2023-04-07T14:21:11;96668.00;;;21.80
56286;BMP180;42191;47.562;9.686;2023-04-07T14:23:37;96673.00;;;21.80
56286;BMP180;42191;47.562;9.686;2023-04-07T14:26:04;96655.00;;;21.80
56286;BMP180;42191;47.562;9.686;2023-04-07T14:28:30;96658.00;;;21.80
56286;BMP180;42191;47.562;9.686;2023-04-07T14:30:56;96657.00;;;21.90
56286;BMP180;42191;47.562;9.686;2023-04-07T14:33:23;96679.00;;;22.00
56286;BMP180;42191;47.562;9.686;2023-04-07T14:35:49;96676.00;;;22.00
56286;BMP180;42191;47.562;9.686;2023-04-07T14:38:16;96665.00;;;22.10